Terminal Aerodrome Forecast
Issued by NWS

Home | Current Version | Previous Version | Text Only | Print | Product List | Glossary On
Versions: 1 2 3 4 5 6 7 8 9 10 11 12 13 14 15 16 17 18 19 20 21 22 23 24 25 26 27 28 29 30 31 32 33 34 35 36
832
FTUS46 KOTX 080528
TAFMWH
TAF
KMWH 080528Z 0806/0906 35005KT P6SM FEW150
     FM081500 36004KT 6SM BR VCFG SCT001
     FM081800 33003KT P6SM SKC
     FM090400 35006KT P6SM SCT004=

USA.gov is the U.S. government's official web portal to all federal, state and local government web resources and services.